sensor_id;sensor_type;location;lat;lon;timestamp;P1;durP1;ratioP1;P2;durP2;ratioP2
26407;SDS011;14583;43.604;1.364;2022-12-10T00:01:32;41.78;;;30.10;;
26407;SDS011;14583;43.604;1.364;2022-12-10T00:04:04;46.35;;;29.50;;
26407;SDS011;14583;43.604;1.364;2022-12-10T00:06:31;40.22;;;28.98;;
26407;SDS011;14583;43.604;1.364;2022-12-10T00:08:59;42.47;;;29.67;;
26407;SDS011;14583;43.604;1.364;2022-12-10T00:11:25;40.05;;;29.05;;
26407;SDS011;14583;43.604;1.364;2022-12-10T00:13:51;39.60;;;27.60;;
26407;SDS011;14583;43.604;1.364;2022-12-10T00:16:19;39.85;;;27.73;;
26407;SDS011;14583;43.604;1.364;2022-12-10T00:18:46;44.13;;;30.17;;
26407;SDS011;14583;43.604;1.364;2022-12-10T00:21:16;42.40;;;30.17;;
26407;SDS011;14583;43.604;1.364;2022-12-10T00:23:43;42.88;;;30.20;;
26407;SDS011;14583;43.604;1.364;2022-12-10T00:28:37;47.10;;;31.85;;
26407;SDS011;14583;43.604;1.364;2022-12-10T00:31:04;49.45;;;32.47;;
26407;SDS011;14583;43.604;1.364;2022-12-10T00:33:32;51.65;;;35.25;;
26407;SDS011;14583;43.604;1.364;2022-12-10T00:36:05;54.75;;;36.90;;
26407;SDS011;14583;43.604;1.364;2022-12-10T00:38:36;58.53;;;36.85;;
26407;SDS011;14583;43.604;1.364;2022-12-10T00:41:03;53.17;;;36.65;;
26407;SDS011;14583;43.604;1.364;2022-12-10T00:43:29;57.55;;;37.35;;
26407;SDS011;14583;43.604;1.364;2022-12-10T00:45:55;54.95;;;36.97;;
26407;SDS011;14583;43.604;1.364;2022-12-10T00:48:21;52.70;;;35.42;;
26407;SDS011;14583;43.604;1.364;2022-12-10T00:50:57;46.85;;;33.53;;
26407;SDS011;14583;43.604;1.364;2022-12-10T00:53:28;45.22;;;30.98;;
26407;SDS011;14583;43.604;1.364;2022-12-10T00:55:55;40.80;;;29.00;;
26407;SDS011;14583;43.604;1.364;2022-12-10T00:58:22;39.35;;;27.17;;
26407;SDS011;14583;43.604;1.364;2022-12-10T01:00:48;39.63;;;28.50;;
26407;SDS011;14583;43.604;1.364;2022-12-10T01:03:14;43.80;;;29.45;;
26407;SDS011;14583;43.604;1.364;2022-12-10T01:05:40;43.97;;;31.15;;
26407;SDS011;14583;43.604;1.364;2022-12-10T01:08:09;42.22;;;29.60;;
26407;SDS011;14583;43.604;1.364;2022-12-10T01:10:34;42.45;;;29.48;;
26407;SDS011;14583;43.604;1.364;2022-12-10T01:13:00;40.53;;;28.83;;
26407;SDS011;14583;43.604;1.364;2022-12-10T01:15:29;40.63;;;29.38;;
26407;SDS011;14583;43.604;1.364;2022-12-10T01:18:19;42.00;;;27.65;;
26407;SDS011;14583;43.604;1.364;2022-12-10T01:20:45;40.90;;;29.90;;
26407;SDS011;14583;43.604;1.364;2022-12-10T01:23:11;41.60;;;28.35;;
26407;SDS011;14583;43.604;1.364;2022-12-10T01:25:37;38.95;;;28.52;;
26407;SDS011;14583;43.604;1.364;2022-12-10T01:28:02;44.10;;;29.73;;
26407;SDS011;14583;43.604;1.364;2022-12-10T01:30:28;42.95;;;29.58;;
26407;SDS011;14583;43.604;1.364;2022-12-10T01:33:03;45.08;;;30.20;;
26407;SDS011;14583;43.604;1.364;2022-12-10T01:35:28;42.47;;;29.45;;
26407;SDS011;14583;43.604;1.364;2022-12-10T01:37:54;42.88;;;30.00;;
26407;SDS011;14583;43.604;1.364;2022-12-10T01:40:20;45.15;;;31.35;;
26407;SDS011;14583;43.604;1.364;2022-12-10T01:42:49;45.70;;;31.33;;
26407;SDS011;14583;43.604;1.364;2022-12-10T01:45:15;49.78;;;31.42;;
26407;SDS011;14583;43.604;1.364;2022-12-10T01:47:42;43.05;;;29.98;;
26407;SDS011;14583;43.604;1.364;2022-12-10T01:50:07;45.47;;;30.77;;
26407;SDS011;14583;43.604;1.364;2022-12-10T01:52:33;44.22;;;30.25;;
26407;SDS011;14583;43.604;1.364;2022-12-10T01:55:06;42.17;;;29.83;;
26407;SDS011;14583;43.604;1.364;2022-12-10T01:57:52;41.75;;;29.27;;
26407;SDS011;14583;43.604;1.364;2022-12-10T02:00:18;41.33;;;28.40;;
26407;SDS011;14583;43.604;1.364;2022-12-10T02:05:44;43.13;;;29.33;;
26407;SDS011;14583;43.604;1.364;2022-12-10T02:08:31;41.92;;;30.25;;
26407;SDS011;14583;43.604;1.364;2022-12-10T02:11:29;40.92;;;29.10;;
26407;SDS011;14583;43.604;1.364;2022-12-10T02:14:41;41.85;;;27.98;;
26407;SDS011;14583;43.604;1.364;2022-12-10T02:17:28;42.10;;;28.92;;
26407;SDS011;14583;43.604;1.364;2022-12-10T02:20:30;37.22;;;26.88;;
26407;SDS011;14583;43.604;1.364;2022-12-10T02:23:02;41.63;;;27.38;;
26407;SDS011;14583;43.604;1.364;2022-12-10T02:31:07;37.58;;;25.73;;
26407;SDS011;14583;43.604;1.364;2022-12-10T02:33:40;34.83;;;25.23;;
26407;SDS011;14583;43.604;1.364;2022-12-10T02:36:22;34.72;;;24.30;;
26407;SDS011;14583;43.604;1.364;2022-12-10T02:38:53;33.45;;;23.20;;
26407;SDS011;14583;43.604;1.364;2022-12-10T02:41:25;37.20;;;24.20;;
26407;SDS011;14583;43.604;1.364;2022-12-10T02:44:18;35.30;;;23.95;;
26407;SDS011;14583;43.604;1.364;2022-12-10T02:46:45;36.40;;;24.02;;
26407;SDS011;14583;43.604;1.364;2022-12-10T02:49:16;32.65;;;23.30;;
26407;SDS011;14583;43.604;1.364;2022-12-10T02:51:51;34.60;;;23.80;;
26407;SDS011;14583;43.604;1.364;2022-12-10T03:00:04;30.80;;;22.58;;
26407;SDS011;14583;43.604;1.364;2022-12-10T03:02:34;37.15;;;24.00;;
26407;SDS011;14583;43.604;1.364;2022-12-10T03:05:17;33.70;;;23.65;;
26407;SDS011;14583;43.604;1.364;2022-12-10T03:13:11;33.35;;;22.15;;
26407;SDS011;14583;43.604;1.364;2022-12-10T03:15:40;35.08;;;22.83;;
26407;SDS011;14583;43.604;1.364;2022-12-10T03:18:10;35.00;;;23.92;;
26407;SDS011;14583;43.604;1.364;2022-12-10T03:20:45;32.88;;;23.85;;
26407;SDS011;14583;43.604;1.364;2022-12-10T03:23:14;36.22;;;24.02;;
26407;SDS011;14583;43.604;1.364;2022-12-10T03:25:41;31.95;;;23.27;;
26407;SDS011;14583;43.604;1.364;2022-12-10T03:28:09;35.70;;;24.10;;
26407;SDS011;14583;43.604;1.364;2022-12-10T03:30:35;34.58;;;24.20;;
26407;SDS011;14583;43.604;1.364;2022-12-10T03:33:04;31.60;;;23.83;;
26407;SDS011;14583;43.604;1.364;2022-12-10T03:35:30;33.00;;;24.27;;
26407;SDS011;14583;43.604;1.364;2022-12-10T03:37:57;40.58;;;23.77;;
26407;SDS011;14583;43.604;1.364;2022-12-10T03:40:23;35.28;;;24.02;;
26407;SDS011;14583;43.604;1.364;2022-12-10T03:42:50;35.63;;;23.95;;
26407;SDS011;14583;43.604;1.364;2022-12-10T03:45:16;36.72;;;24.65;;
26407;SDS011;14583;43.604;1.364;2022-12-10T03:47:42;37.63;;;24.75;;
26407;SDS011;14583;43.604;1.364;2022-12-10T03:50:09;39.50;;;25.70;;
26407;SDS011;14583;43.604;1.364;2022-12-10T03:52:35;33.65;;;23.92;;
26407;SDS011;14583;43.604;1.364;2022-12-10T03:55:01;35.15;;;23.52;;
26407;SDS011;14583;43.604;1.364;2022-12-10T03:57:28;34.67;;;23.63;;
26407;SDS011;14583;43.604;1.364;2022-12-10T03:59:53;32.55;;;23.45;;
26407;SDS011;14583;43.604;1.364;2022-12-10T04:02:19;33.95;;;23.48;;
26407;SDS011;14583;43.604;1.364;2022-12-10T04:04:45;36.88;;;23.65;;
26407;SDS011;14583;43.604;1.364;2022-12-10T04:07:11;31.58;;;22.35;;
26407;SDS011;14583;43.604;1.364;2022-12-10T04:09:38;30.35;;;21.85;;
26407;SDS011;14583;43.604;1.364;2022-12-10T04:12:04;29.02;;;21.23;;
26407;SDS011;14583;43.604;1.364;2022-12-10T04:14:30;32.75;;;20.52;;
26407;SDS011;14583;43.604;1.364;2022-12-10T04:17:14;29.88;;;21.17;;
26407;SDS011;14583;43.604;1.364;2022-12-10T04:19:40;28.13;;;20.23;;
26407;SDS011;14583;43.604;1.364;2022-12-10T04:22:12;29.52;;;20.90;;
26407;SDS011;14583;43.604;1.364;2022-12-10T04:24:56;29.08;;;20.27;;
26407;SDS011;14583;43.604;1.364;2022-12-10T04:27:47;29.55;;;19.80;;
26407;SDS011;14583;43.604;1.364;2022-12-10T04:30:22;29.98;;;20.30;;
26407;SDS011;14583;43.604;1.364;2022-12-10T04:32:48;27.98;;;19.55;;
26407;SDS011;14583;43.604;1.364;2022-12-10T04:35:14;29.00;;;19.35;;
26407;SDS011;14583;43.604;1.364;2022-12-10T04:37:49;28.02;;;19.83;;
26407;SDS011;14583;43.604;1.364;2022-12-10T04:40:15;31.33;;;20.13;;
26407;SDS011;14583;43.604;1.364;2022-12-10T04:42:40;29.20;;;18.80;;
26407;SDS011;14583;43.604;1.364;2022-12-10T04:45:09;28.25;;;20.00;;
26407;SDS011;14583;43.604;1.364;2022-12-10T04:47:41;26.73;;;18.80;;
26407;SDS011;14583;43.604;1.364;2022-12-10T04:50:22;29.95;;;19.23;;
26407;SDS011;14583;43.604;1.364;2022-12-10T04:52:48;30.17;;;20.77;;
26407;SDS011;14583;43.604;1.364;2022-12-10T04:55:29;30.77;;;19.70;;
26407;SDS011;14583;43.604;1.364;2022-12-10T04:57:55;28.10;;;19.08;;
26407;SDS011;14583;43.604;1.364;2022-12-10T05:00:20;35.83;;;20.02;;
26407;SDS011;14583;43.604;1.364;2022-12-10T05:02:47;28.63;;;18.13;;
26407;SDS011;14583;43.604;1.364;2022-12-10T05:05:14;27.25;;;17.73;;
26407;SDS011;14583;43.604;1.364;2022-12-10T05:07:40;27.25;;;19.67;;
26407;SDS011;14583;43.604;1.364;2022-12-10T05:10:13;28.02;;;17.98;;
26407;SDS011;14583;43.604;1.364;2022-12-10T05:12:42;27.30;;;18.58;;
26407;SDS011;14583;43.604;1.364;2022-12-10T05:15:08;28.67;;;18.42;;
26407;SDS011;14583;43.604;1.364;2022-12-10T05:17:45;26.00;;;17.58;;
26407;SDS011;14583;43.604;1.364;2022-12-10T05:20:18;25.58;;;17.20;;
26407;SDS011;14583;43.604;1.364;2022-12-10T05:22:44;26.60;;;18.08;;
26407;SDS011;14583;43.604;1.364;2022-12-10T05:25:28;27.30;;;18.15;;
26407;SDS011;14583;43.604;1.364;2022-12-10T05:27:54;26.17;;;18.50;;
26407;SDS011;14583;43.604;1.364;2022-12-10T05:30:20;36.65;;;18.63;;
26407;SDS011;14583;43.604;1.364;2022-12-10T05:32:55;26.98;;;18.33;;
26407;SDS011;14583;43.604;1.364;2022-12-10T05:35:20;27.45;;;18.55;;
26407;SDS011;14583;43.604;1.364;2022-12-10T05:37:46;33.22;;;19.25;;
26407;SDS011;14583;43.604;1.364;2022-12-10T05:40:12;29.90;;;19.23;;
26407;SDS011;14583;43.604;1.364;2022-12-10T05:42:38;29.40;;;18.00;;
26407;SDS011;14583;43.604;1.364;2022-12-10T05:45:09;26.92;;;18.27;;
26407;SDS011;14583;43.604;1.364;2022-12-10T05:47:35;33.92;;;19.88;;
26407;SDS011;14583;43.604;1.364;2022-12-10T05:50:20;25.67;;;18.10;;
26407;SDS011;14583;43.604;1.364;2022-12-10T05:52:50;26.92;;;18.67;;
26407;SDS011;14583;43.604;1.364;2022-12-10T05:55:19;30.90;;;19.80;;
26407;SDS011;14583;43.604;1.364;2022-12-10T05:57:44;29.60;;;18.27;;
26407;SDS011;14583;43.604;1.364;2022-12-10T06:00:13;30.15;;;19.38;;
26407;SDS011;14583;43.604;1.364;2022-12-10T06:02:42;29.90;;;19.10;;
26407;SDS011;14583;43.604;1.364;2022-12-10T06:05:21;31.30;;;19.88;;
26407;SDS011;14583;43.604;1.364;2022-12-10T06:07:47;30.65;;;20.00;;
26407;SDS011;14583;43.604;1.364;2022-12-10T06:10:28;28.17;;;18.92;;
26407;SDS011;14583;43.604;1.364;2022-12-10T06:13:02;32.47;;;19.88;;
26407;SDS011;14583;43.604;1.364;2022-12-10T06:15:31;31.27;;;20.38;;
26407;SDS011;14583;43.604;1.364;2022-12-10T06:17:58;30.92;;;20.15;;
26407;SDS011;14583;43.604;1.364;2022-12-10T06:20:43;28.50;;;18.85;;
26407;SDS011;14583;43.604;1.364;2022-12-10T06:23:40;33.50;;;20.98;;
26407;SDS011;14583;43.604;1.364;2022-12-10T06:26:25;30.05;;;19.02;;
26407;SDS011;14583;43.604;1.364;2022-12-10T06:28:52;31.20;;;20.30;;
26407;SDS011;14583;43.604;1.364;2022-12-10T06:31:25;32.42;;;20.33;;
26407;SDS011;14583;43.604;1.364;2022-12-10T06:33:51;32.05;;;19.58;;
26407;SDS011;14583;43.604;1.364;2022-12-10T06:36:18;29.38;;;18.45;;
26407;SDS011;14583;43.604;1.364;2022-12-10T06:38:44;29.23;;;19.80;;
26407;SDS011;14583;43.604;1.364;2022-12-10T06:41:12;27.05;;;18.63;;
26407;SDS011;14583;43.604;1.364;2022-12-10T06:43:39;31.13;;;18.35;;
26407;SDS011;14583;43.604;1.364;2022-12-10T06:46:09;30.60;;;19.80;;
26407;SDS011;14583;43.604;1.364;2022-12-10T06:48:36;31.23;;;20.30;;
26407;SDS011;14583;43.604;1.364;2022-12-10T06:51:02;30.90;;;19.65;;
26407;SDS011;14583;43.604;1.364;2022-12-10T06:53:29;31.98;;;19.70;;
26407;SDS011;14583;43.604;1.364;2022-12-10T06:55:57;32.08;;;19.73;;
26407;SDS011;14583;43.604;1.364;2022-12-10T06:58:27;26.73;;;18.60;;
26407;SDS011;14583;43.604;1.364;2022-12-10T07:00:54;30.08;;;18.52;;
26407;SDS011;14583;43.604;1.364;2022-12-10T07:03:20;32.42;;;20.23;;
26407;SDS011;14583;43.604;1.364;2022-12-10T07:05:48;29.45;;;19.30;;
26407;SDS011;14583;43.604;1.364;2022-12-10T07:08:25;34.53;;;19.33;;
26407;SDS011;14583;43.604;1.364;2022-12-10T07:10:52;36.33;;;20.98;;
26407;SDS011;14583;43.604;1.364;2022-12-10T07:13:21;28.15;;;18.83;;
26407;SDS011;14583;43.604;1.364;2022-12-10T07:18:16;29.35;;;18.23;;
26407;SDS011;14583;43.604;1.364;2022-12-10T07:20:48;27.58;;;17.52;;
26407;SDS011;14583;43.604;1.364;2022-12-10T07:23:20;26.85;;;17.02;;
26407;SDS011;14583;43.604;1.364;2022-12-10T07:25:49;28.95;;;17.73;;
26407;SDS011;14583;43.604;1.364;2022-12-10T07:28:18;25.27;;;17.63;;
26407;SDS011;14583;43.604;1.364;2022-12-10T07:31:21;26.15;;;16.80;;
26407;SDS011;14583;43.604;1.364;2022-12-10T07:33:54;25.60;;;17.02;;
26407;SDS011;14583;43.604;1.364;2022-12-10T07:36:34;24.77;;;15.27;;
26407;SDS011;14583;43.604;1.364;2022-12-10T07:38:59;21.80;;;14.30;;
26407;SDS011;14583;43.604;1.364;2022-12-10T07:41:28;23.58;;;15.02;;
26407;SDS011;14583;43.604;1.364;2022-12-10T07:43:59;22.30;;;14.85;;
26407;SDS011;14583;43.604;1.364;2022-12-10T07:46:31;23.25;;;15.70;;
26407;SDS011;14583;43.604;1.364;2022-12-10T07:49:49;21.83;;;15.38;;
26407;SDS011;14583;43.604;1.364;2022-12-10T07:52:27;22.65;;;14.98;;
26407;SDS011;14583;43.604;1.364;2022-12-10T07:54:53;28.92;;;16.88;;
26407;SDS011;14583;43.604;1.364;2022-12-10T07:57:22;22.75;;;16.02;;
26407;SDS011;14583;43.604;1.364;2022-12-10T07:59:47;23.48;;;16.30;;
26407;SDS011;14583;43.604;1.364;2022-12-10T08:02:13;23.08;;;16.52;;
26407;SDS011;14583;43.604;1.364;2022-12-10T08:04:46;27.05;;;18.15;;
26407;SDS011;14583;43.604;1.364;2022-12-10T08:07:12;26.13;;;16.90;;
26407;SDS011;14583;43.604;1.364;2022-12-10T08:09:38;26.45;;;17.02;;
26407;SDS011;14583;43.604;1.364;2022-12-10T08:12:03;25.48;;;18.67;;
26407;SDS011;14583;43.604;1.364;2022-12-10T08:14:29;25.70;;;17.35;;
26407;SDS011;14583;43.604;1.364;2022-12-10T08:16:55;29.40;;;19.90;;
26407;SDS011;14583;43.604;1.364;2022-12-10T08:19:24;25.80;;;17.85;;
26407;SDS011;14583;43.604;1.364;2022-12-10T08:22:11;26.60;;;16.75;;
26407;SDS011;14583;43.604;1.364;2022-12-10T08:24:49;25.95;;;18.33;;
26407;SDS011;14583;43.604;1.364;2022-12-10T08:27:15;27.40;;;18.05;;
26407;SDS011;14583;43.604;1.364;2022-12-10T08:29:40;28.85;;;18.15;;
26407;SDS011;14583;43.604;1.364;2022-12-10T08:32:09;22.80;;;16.30;;
26407;SDS011;14583;43.604;1.364;2022-12-10T08:34:49;23.67;;;16.60;;
26407;SDS011;14583;43.604;1.364;2022-12-10T08:37:20;23.77;;;17.42;;
26407;SDS011;14583;43.604;1.364;2022-12-10T08:39:49;25.13;;;16.63;;
26407;SDS011;14583;43.604;1.364;2022-12-10T08:42:24;21.85;;;15.48;;
26407;SDS011;14583;43.604;1.364;2022-12-10T08:44:49;18.70;;;14.43;;
26407;SDS011;14583;43.604;1.364;2022-12-10T08:47:15;20.80;;;15.52;;
26407;SDS011;14583;43.604;1.364;2022-12-10T08:49:41;19.88;;;14.18;;
26407;SDS011;14583;43.604;1.364;2022-12-10T08:52:07;20.70;;;14.73;;
26407;SDS011;14583;43.604;1.364;2022-12-10T08:54:38;21.20;;;14.55;;
26407;SDS011;14583;43.604;1.364;2022-12-10T08:57:03;18.88;;;14.18;;
26407;SDS011;14583;43.604;1.364;2022-12-10T08:59:32;20.48;;;14.30;;
26407;SDS011;14583;43.604;1.364;2022-12-10T09:01:57;23.85;;;15.32;;
26407;SDS011;14583;43.604;1.364;2022-12-10T09:04:26;22.63;;;15.68;;
26407;SDS011;14583;43.604;1.364;2022-12-10T09:06:55;20.30;;;14.82;;
26407;SDS011;14583;43.604;1.364;2022-12-10T09:09:35;21.65;;;14.48;;
26407;SDS011;14583;43.604;1.364;2022-12-10T09:12:01;24.38;;;15.77;;
26407;SDS011;14583;43.604;1.364;2022-12-10T09:14:28;23.75;;;15.55;;
26407;SDS011;14583;43.604;1.364;2022-12-10T09:16:53;20.80;;;15.20;;
26407;SDS011;14583;43.604;1.364;2022-12-10T09:19:19;25.40;;;16.08;;
26407;SDS011;14583;43.604;1.364;2022-12-10T09:21:45;19.42;;;14.45;;
26407;SDS011;14583;43.604;1.364;2022-12-10T09:24:11;17.67;;;13.10;;
26407;SDS011;14583;43.604;1.364;2022-12-10T09:26:40;17.17;;;12.25;;
26407;SDS011;14583;43.604;1.364;2022-12-10T09:29:06;20.45;;;13.27;;
26407;SDS011;14583;43.604;1.364;2022-12-10T09:31:31;17.80;;;13.18;;
26407;SDS011;14583;43.604;1.364;2022-12-10T09:33:57;20.63;;;14.77;;
26407;SDS011;14583;43.604;1.364;2022-12-10T09:36:23;19.08;;;13.52;;
26407;SDS011;14583;43.604;1.364;2022-12-10T09:38:48;19.70;;;14.73;;
26407;SDS011;14583;43.604;1.364;2022-12-10T09:47:16;18.13;;;11.68;;
26407;SDS011;14583;43.604;1.364;2022-12-10T09:52:18;18.55;;;12.93;;
26407;SDS011;14583;43.604;1.364;2022-12-10T09:57:22;18.70;;;12.95;;
26407;SDS011;14583;43.604;1.364;2022-12-10T09:59:49;19.08;;;12.93;;
26407;SDS011;14583;43.604;1.364;2022-12-10T10:02:21;17.27;;;12.75;;
26407;SDS011;14583;43.604;1.364;2022-12-10T10:04:57;18.65;;;12.77;;
26407;SDS011;14583;43.604;1.364;2022-12-10T10:07:30;19.80;;;13.02;;
26407;SDS011;14583;43.604;1.364;2022-12-10T10:10:16;18.27;;;13.02;;
26407;SDS011;14583;43.604;1.364;2022-12-10T10:12:47;19.38;;;12.95;;
26407;SDS011;14583;43.604;1.364;2022-12-10T10:15:16;17.00;;;12.35;;
26407;SDS011;14583;43.604;1.364;2022-12-10T10:17:47;17.88;;;11.77;;
26407;SDS011;14583;43.604;1.364;2022-12-10T10:20:14;18.02;;;12.88;;
26407;SDS011;14583;43.604;1.364;2022-12-10T10:22:40;18.92;;;12.85;;
26407;SDS011;14583;43.604;1.364;2022-12-10T10:25:12;22.55;;;13.00;;
26407;SDS011;14583;43.604;1.364;2022-12-10T10:27:40;19.80;;;13.25;;
26407;SDS011;14583;43.604;1.364;2022-12-10T10:30:06;17.05;;;12.20;;
26407;SDS011;14583;43.604;1.364;2022-12-10T10:35:04;17.67;;;12.20;;
26407;SDS011;14583;43.604;1.364;2022-12-10T10:39:59;19.27;;;12.88;;
26407;SDS011;14583;43.604;1.364;2022-12-10T10:45:05;16.35;;;11.57;;
26407;SDS011;14583;43.604;1.364;2022-12-10T10:48:02;20.38;;;12.45;;
26407;SDS011;14583;43.604;1.364;2022-12-10T10:50:30;17.95;;;12.75;;
26407;SDS011;14583;43.604;1.364;2022-12-10T10:53:00;16.30;;;12.07;;
26407;SDS011;14583;43.604;1.364;2022-12-10T10:55:30;20.92;;;13.07;;
26407;SDS011;14583;43.604;1.364;2022-12-10T11:00:28;17.88;;;11.55;;
26407;SDS011;14583;43.604;1.364;2022-12-10T11:02:55;18.38;;;11.65;;
26407;SDS011;14583;43.604;1.364;2022-12-10T11:05:26;20.20;;;11.93;;
26407;SDS011;14583;43.604;1.364;2022-12-10T11:11:12;17.95;;;11.05;;
26407;SDS011;14583;43.604;1.364;2022-12-10T11:14:22;16.15;;;11.80;;
26407;SDS011;14583;43.604;1.364;2022-12-10T11:22:30;16.58;;;10.55;;
26407;SDS011;14583;43.604;1.364;2022-12-10T11:25:11;16.40;;;11.77;;
26407;SDS011;14583;43.604;1.364;2022-12-10T11:30:38;16.15;;;11.18;;
26407;SDS011;14583;43.604;1.364;2022-12-10T11:33:45;17.38;;;11.15;;
26407;SDS011;14583;43.604;1.364;2022-12-10T11:51:50;20.17;;;11.57;;
26407;SDS011;14583;43.604;1.364;2022-12-10T11:56:40;14.48;;;10.45;;
26407;SDS011;14583;43.604;1.364;2022-12-10T11:59:19;15.68;;;10.63;;
26407;SDS011;14583;43.604;1.364;2022-12-10T12:13:32;18.05;;;10.88;;
26407;SDS011;14583;43.604;1.364;2022-12-10T12:16:15;17.13;;;9.75;;
26407;SDS011;14583;43.604;1.364;2022-12-10T12:19:10;16.60;;;11.02;;
26407;SDS011;14583;43.604;1.364;2022-12-10T12:21:42;14.43;;;10.02;;
26407;SDS011;14583;43.604;1.364;2022-12-10T12:24:22;13.82;;;9.70;;
26407;SDS011;14583;43.604;1.364;2022-12-10T12:29:57;15.38;;;9.75;;
26407;SDS011;14583;43.604;1.364;2022-12-10T12:35:39;14.13;;;9.75;;
26407;SDS011;14583;43.604;1.364;2022-12-10T12:50:11;14.73;;;9.07;;
26407;SDS011;14583;43.604;1.364;2022-12-10T12:52:58;12.27;;;8.57;;
26407;SDS011;14583;43.604;1.364;2022-12-10T12:56:05;12.65;;;8.80;;
26407;SDS011;14583;43.604;1.364;2022-12-10T13:04:54;11.43;;;7.97;;
26407;SDS011;14583;43.604;1.364;2022-12-10T13:10:26;13.68;;;7.70;;
26407;SDS011;14583;43.604;1.364;2022-12-10T13:13:06;11.05;;;8.50;;
26407;SDS011;14583;43.604;1.364;2022-12-10T13:19:12;14.00;;;7.63;;
26407;SDS011;14583;43.604;1.364;2022-12-10T13:22:06;10.40;;;7.22;;
26407;SDS011;14583;43.604;1.364;2022-12-10T13:32:18;14.23;;;8.40;;
26407;SDS011;14583;43.604;1.364;2022-12-10T13:37:33;10.93;;;7.03;;
26407;SDS011;14583;43.604;1.364;2022-12-10T13:42:34;12.18;;;7.15;;
26407;SDS011;14583;43.604;1.364;2022-12-10T13:47:47;10.70;;;7.68;;
26407;SDS011;14583;43.604;1.364;2022-12-10T13:50:48;10.88;;;7.45;;
26407;SDS011;14583;43.604;1.364;2022-12-10T13:58:36;10.60;;;6.82;;
26407;SDS011;14583;43.604;1.364;2022-12-10T14:04:04;15.15;;;8.77;;
26407;SDS011;14583;43.604;1.364;2022-12-10T14:06:37;13.00;;;9.05;;
26407;SDS011;14583;43.604;1.364;2022-12-10T14:09:10;15.40;;;9.40;;
26407;SDS011;14583;43.604;1.364;2022-12-10T14:12:03;12.85;;;8.00;;
26407;SDS011;14583;43.604;1.364;2022-12-10T14:14:43;11.38;;;8.50;;
26407;SDS011;14583;43.604;1.364;2022-12-10T14:17:12;13.30;;;8.82;;
26407;SDS011;14583;43.604;1.364;2022-12-10T14:19:44;11.82;;;8.50;;
26407;SDS011;14583;43.604;1.364;2022-12-10T14:22:13;11.93;;;8.35;;
26407;SDS011;14583;43.604;1.364;2022-12-10T14:24:42;14.90;;;9.13;;
26407;SDS011;14583;43.604;1.364;2022-12-10T14:27:14;13.02;;;8.10;;
26407;SDS011;14583;43.604;1.364;2022-12-10T14:29:48;13.63;;;8.63;;
26407;SDS011;14583;43.604;1.364;2022-12-10T14:32:41;16.67;;;10.27;;
26407;SDS011;14583;43.604;1.364;2022-12-10T14:35:10;12.90;;;9.52;;
26407;SDS011;14583;43.604;1.364;2022-12-10T14:37:40;14.10;;;9.00;;
26407;SDS011;14583;43.604;1.364;2022-12-10T14:40:08;14.45;;;9.45;;
26407;SDS011;14583;43.604;1.364;2022-12-10T14:42:48;15.98;;;9.45;;
26407;SDS011;14583;43.604;1.364;2022-12-10T14:45:15;12.27;;;8.60;;
26407;SDS011;14583;43.604;1.364;2022-12-10T14:47:41;16.27;;;9.57;;
26407;SDS011;14583;43.604;1.364;2022-12-10T14:50:10;14.85;;;9.70;;
26407;SDS011;14583;43.604;1.364;2022-12-10T14:52:40;12.90;;;9.52;;
26407;SDS011;14583;43.604;1.364;2022-12-10T14:55:18;19.75;;;10.63;;
26407;SDS011;14583;43.604;1.364;2022-12-10T14:57:56;16.63;;;10.50;;
26407;SDS011;14583;43.604;1.364;2022-12-10T15:00:26;13.55;;;8.85;;
26407;SDS011;14583;43.604;1.364;2022-12-10T15:02:56;13.95;;;9.25;;
26407;SDS011;14583;43.604;1.364;2022-12-10T15:05:28;13.05;;;9.25;;
26407;SDS011;14583;43.604;1.364;2022-12-10T15:10:26;14.85;;;9.88;;
26407;SDS011;14583;43.604;1.364;2022-12-10T15:12:56;18.85;;;10.00;;
26407;SDS011;14583;43.604;1.364;2022-12-10T15:15:24;14.02;;;9.32;;
26407;SDS011;14583;43.604;1.364;2022-12-10T15:20:37;14.00;;;9.23;;
26407;SDS011;14583;43.604;1.364;2022-12-10T15:23:15;13.15;;;9.32;;
26407;SDS011;14583;43.604;1.364;2022-12-10T15:25:44;13.77;;;9.00;;
26407;SDS011;14583;43.604;1.364;2022-12-10T15:28:30;15.32;;;10.50;;
26407;SDS011;14583;43.604;1.364;2022-12-10T15:31:09;16.83;;;10.27;;
26407;SDS011;14583;43.604;1.364;2022-12-10T15:33:48;14.85;;;10.35;;
26407;SDS011;14583;43.604;1.364;2022-12-10T15:36:31;16.25;;;9.88;;
26407;SDS011;14583;43.604;1.364;2022-12-10T15:41:55;14.73;;;10.13;;
26407;SDS011;14583;43.604;1.364;2022-12-10T15:47:08;15.50;;;10.98;;
26407;SDS011;14583;43.604;1.364;2022-12-10T15:49:38;17.83;;;10.73;;
26407;SDS011;14583;43.604;1.364;2022-12-10T15:52:04;17.40;;;11.65;;
26407;SDS011;14583;43.604;1.364;2022-12-10T15:57:13;17.85;;;10.82;;
26407;SDS011;14583;43.604;1.364;2022-12-10T15:59:39;15.43;;;10.00;;
26407;SDS011;14583;43.604;1.364;2022-12-10T16:07:35;17.92;;;11.20;;
26407;SDS011;14583;43.604;1.364;2022-12-10T16:10:01;15.95;;;11.70;;
26407;SDS011;14583;43.604;1.364;2022-12-10T16:12:28;18.20;;;12.07;;
26407;SDS011;14583;43.604;1.364;2022-12-10T16:14:54;16.30;;;12.02;;
26407;SDS011;14583;43.604;1.364;2022-12-10T16:17:24;19.75;;;12.27;;
26407;SDS011;14583;43.604;1.364;2022-12-10T16:19:56;16.65;;;12.18;;
26407;SDS011;14583;43.604;1.364;2022-12-10T16:22:41;16.67;;;12.13;;
26407;SDS011;14583;43.604;1.364;2022-12-10T16:25:07;15.48;;;12.30;;
26407;SDS011;14583;43.604;1.364;2022-12-10T16:27:33;18.85;;;12.88;;
26407;SDS011;14583;43.604;1.364;2022-12-10T16:30:05;18.38;;;12.77;;
26407;SDS011;14583;43.604;1.364;2022-12-10T16:32:36;18.20;;;12.52;;
26407;SDS011;14583;43.604;1.364;2022-12-10T16:35:02;16.98;;;12.35;;
26407;SDS011;14583;43.604;1.364;2022-12-10T16:37:28;18.50;;;12.23;;
26407;SDS011;14583;43.604;1.364;2022-12-10T16:39:53;23.80;;;12.88;;
26407;SDS011;14583;43.604;1.364;2022-12-10T16:42:19;20.65;;;14.15;;
26407;SDS011;14583;43.604;1.364;2022-12-10T16:44:45;21.63;;;14.10;;
26407;SDS011;14583;43.604;1.364;2022-12-10T16:47:11;18.88;;;13.55;;
26407;SDS011;14583;43.604;1.364;2022-12-10T16:49:37;24.15;;;13.70;;
26407;SDS011;14583;43.604;1.364;2022-12-10T16:52:03;17.55;;;13.25;;
26407;SDS011;14583;43.604;1.364;2022-12-10T16:54:29;17.38;;;12.18;;
26407;SDS011;14583;43.604;1.364;2022-12-10T16:56:55;23.50;;;12.57;;
26407;SDS011;14583;43.604;1.364;2022-12-10T16:59:21;18.55;;;12.05;;
26407;SDS011;14583;43.604;1.364;2022-12-10T17:01:47;20.35;;;13.15;;
26407;SDS011;14583;43.604;1.364;2022-12-10T17:04:12;17.95;;;13.55;;
26407;SDS011;14583;43.604;1.364;2022-12-10T17:06:38;19.50;;;12.52;;
26407;SDS011;14583;43.604;1.364;2022-12-10T17:09:04;21.08;;;13.27;;
26407;SDS011;14583;43.604;1.364;2022-12-10T17:11:38;18.17;;;13.38;;
26407;SDS011;14583;43.604;1.364;2022-12-10T17:16:45;19.83;;;13.98;;
26407;SDS011;14583;43.604;1.364;2022-12-10T17:19:13;20.75;;;14.63;;
26407;SDS011;14583;43.604;1.364;2022-12-10T17:21:39;20.98;;;13.63;;
26407;SDS011;14583;43.604;1.364;2022-12-10T17:24:05;30.15;;;19.60;;
26407;SDS011;14583;43.604;1.364;2022-12-10T17:26:32;27.92;;;17.15;;
26407;SDS011;14583;43.604;1.364;2022-12-10T17:29:05;26.08;;;17.70;;
26407;SDS011;14583;43.604;1.364;2022-12-10T17:31:36;21.88;;;15.07;;